createdAt,value
2022-12-23T00:00:26.840Z,53.92
2022-12-23T00:01:29.908Z,53.96
2022-12-23T00:02:34.164Z,54.04
2022-12-23T00:03:37.575Z,54.03
2022-12-23T00:04:39.989Z,53.98
2022-12-23T00:05:42.220Z,53.95
2022-12-23T00:06:44.434Z,53.94
2022-12-23T00:07:46.669Z,53.92
2022-12-23T00:08:48.856Z,53.92
2022-12-23T00:09:51.132Z,53.89
2022-12-23T00:10:54.208Z,53.95
2022-12-23T00:11:56.337Z,54.00
2022-12-23T00:12:59.081Z,53.99
2022-12-23T00:14:01.335Z,53.92
2022-12-23T00:15:04.249Z,53.93
2022-12-23T00:16:08.936Z,53.92
2022-12-23T00:17:22.014Z,53.91
2022-12-23T00:18:15.520Z,53.87
2022-12-23T00:19:17.746Z,53.85
2022-12-23T00:20:20.086Z,53.83
2022-12-23T00:21:22.908Z,53.86
2022-12-23T00:22:25.260Z,53.86
2022-12-23T00:23:28.176Z,53.81
2022-12-23T00:24:34.160Z,53.80
2022-12-23T00:25:43.860Z,53.81
2022-12-23T00:26:49.275Z,53.76
2022-12-23T00:27:54.221Z,53.78
2022-12-23T00:28:56.351Z,53.76
2022-12-23T00:29:58.587Z,53.73
2022-12-23T00:31:03.978Z,53.73
2022-12-23T00:32:06.327Z,53.74
2022-12-23T00:33:08.566Z,53.75
2022-12-23T00:34:10.893Z,53.71
2022-12-23T00:35:13.348Z,53.70
2022-12-23T00:36:21.064Z,53.70
2022-12-23T00:37:23.371Z,53.69
2022-12-23T00:38:26.101Z,53.71
2022-12-23T00:39:28.335Z,53.73
2022-12-23T00:40:32.238Z,53.72
2022-12-23T00:41:35.574Z,53.72
2022-12-23T00:42:37.714Z,53.72
2022-12-23T00:43:40.529Z,53.72
2022-12-23T00:44:43.135Z,53.73
2022-12-23T00:45:46.100Z,53.74
2022-12-23T00:46:48.943Z,53.71
2022-12-23T00:47:52.132Z,53.72
2022-12-23T00:48:54.306Z,53.73
2022-12-23T00:49:56.542Z,53.73
2022-12-23T00:50:58.649Z,53.71
2022-12-23T00:52:01.064Z,53.71
2022-12-23T00:53:04.375Z,53.72
2022-12-23T00:54:06.733Z,53.69
2022-12-23T00:55:08.975Z,53.69
2022-12-23T00:56:11.921Z,53.68
2022-12-23T00:57:15.080Z,53.66
2022-12-23T00:58:18.163Z,53.67
2022-12-23T00:59:21.088Z,53.62
2022-12-23T01:00:23.259Z,53.64
2022-12-23T01:01:25.413Z,53.62
2022-12-23T01:02:27.804Z,53.59
2022-12-23T01:03:30.274Z,53.60
2022-12-23T01:04:32.626Z,53.58
2022-12-23T01:05:35.558Z,53.58
2022-12-23T01:06:37.866Z,53.58
2022-12-23T01:07:40.520Z,53.56
2022-12-23T01:08:42.862Z,53.64
2022-12-23T01:09:45.342Z,53.61
2022-12-23T01:10:47.832Z,53.61
2022-12-23T01:11:50.439Z,53.61
2022-12-23T01:12:53.395Z,53.61
2022-12-23T01:13:55.673Z,53.60
2022-12-23T01:14:57.872Z,53.60
2022-12-23T01:16:07.550Z,53.60
2022-12-23T01:17:10.560Z,53.59
2022-12-23T01:18:12.798Z,53.61
2022-12-23T01:19:15.311Z,53.60
2022-12-23T01:20:17.527Z,53.55
2022-12-23T01:21:19.744Z,53.58
2022-12-23T01:22:21.926Z,53.58
2022-12-23T01:23:24.134Z,53.41
2022-12-23T01:24:30.187Z,53.14
2022-12-23T01:25:33.456Z,52.89
2022-12-23T01:26:35.571Z,52.07
2022-12-23T01:27:38.501Z,52.07
2022-12-23T01:28:41.373Z,51.78
2022-12-23T01:29:43.756Z,51.90
2022-12-23T01:30:45.941Z,51.13
2022-12-23T01:31:48.210Z,50.95
2022-12-23T01:32:50.354Z,50.85
2022-12-23T01:33:52.660Z,50.70
2022-12-23T01:34:54.836Z,50.51
2022-12-23T01:37:16.740Z,50.10
2022-12-23T01:38:18.809Z,49.81
2022-12-23T01:39:20.827Z,49.62
2022-12-23T01:40:23.251Z,49.24
2022-12-23T01:41:27.185Z,49.08
2022-12-23T01:42:31.148Z,49.00
2022-12-23T01:43:50.129Z,49.08
2022-12-23T01:45:03.492Z,48.72
2022-12-23T01:46:06.610Z,49.11
2022-12-23T01:47:11.375Z,48.97
2022-12-23T01:48:25.209Z,48.81
2022-12-23T01:49:27.327Z,49.20
2022-12-23T01:50:33.989Z,49.35
2022-12-23T01:51:36.198Z,49.32
2022-12-23T01:52:42.074Z,49.17
2022-12-23T01:53:46.819Z,49.01
2022-12-23T01:54:49.084Z,49.06
2022-12-23T01:56:00.501Z,48.99
2022-12-23T01:57:03.073Z,49.06
2022-12-23T01:58:12.142Z,49.13
2022-12-23T01:59:16.197Z,48.80
2022-12-23T02:00:18.738Z,49.10
2022-12-23T02:01:21.023Z,48.94
2022-12-23T02:02:23.459Z,48.84
2022-12-23T02:03:25.736Z,48.89
2022-12-23T02:04:27.943Z,48.72
2022-12-23T02:05:29.947Z,49.18
2022-12-23T02:06:40.759Z,48.78
2022-12-23T02:07:42.888Z,48.89
2022-12-23T02:08:45.183Z,49.23
2022-12-23T02:09:47.666Z,49.10
2022-12-23T02:12:35.567Z,49.20
2022-12-23T02:15:24.994Z,49.05
2022-12-23T02:16:29.317Z,49.13
2022-12-23T02:17:38.685Z,48.87
2022-12-23T02:19:03.069Z,48.73
2022-12-23T02:20:21.154Z,48.51
2022-12-23T02:23:22.303Z,48.23
2022-12-23T02:24:50.578Z,48.00
2022-12-23T02:25:56.822Z,48.35
2022-12-23T02:27:22.319Z,49.04
2022-12-23T02:28:29.055Z,49.37
2022-12-23T02:29:50.390Z,49.71
2022-12-23T02:32:14.869Z,50.21
2022-12-23T02:33:21.366Z,50.37
2022-12-23T02:34:47.096Z,50.57
2022-12-23T02:37:46.038Z,50.78
2022-12-23T02:39:00.739Z,50.84
2022-12-23T02:40:23.271Z,50.97
2022-12-23T02:41:55.524Z,51.07
2022-12-23T02:44:45.985Z,51.19
2022-12-23T02:46:06.796Z,51.21
2022-12-23T02:47:10.872Z,51.30
2022-12-23T02:48:28.988Z,51.36
2022-12-23T02:49:39.490Z,51.41
2022-12-23T02:50:42.367Z,51.42
2022-12-23T02:51:47.560Z,51.49
2022-12-23T02:52:50.458Z,51.51
2022-12-23T02:53:55.266Z,51.53
2022-12-23T02:55:01.254Z,51.56
2022-12-23T02:56:05.046Z,51.56
2022-12-23T02:57:07.850Z,51.58
2022-12-23T02:58:12.316Z,51.58
2022-12-23T02:59:21.220Z,51.56
2022-12-23T03:00:23.739Z,51.62
2022-12-23T03:01:27.181Z,51.60
2022-12-23T03:02:38.899Z,51.61
2022-12-23T03:03:41.411Z,51.61
2022-12-23T03:04:43.639Z,51.61
2022-12-23T03:05:47.971Z,51.65
2022-12-23T03:06:54.803Z,51.68
2022-12-23T03:07:59.142Z,51.67
2022-12-23T03:09:01.319Z,51.67
2022-12-23T03:10:19.506Z,51.69
2022-12-23T03:11:21.673Z,51.69
2022-12-23T03:12:27.533Z,51.69
2022-12-23T03:15:32.559Z,51.69
2022-12-23T03:16:47.779Z,51.67
2022-12-23T03:18:06.592Z,51.69
2022-12-23T03:20:58.625Z,51.74
2022-12-23T03:22:07.903Z,51.76
2022-12-23T03:23:27.894Z,51.78
2022-12-23T03:24:55.535Z,51.79
2022-12-23T03:26:01.210Z,51.82
2022-12-23T03:27:09.500Z,51.86
2022-12-23T03:28:18.658Z,51.89
2022-12-23T03:29:26.734Z,51.94
2022-12-23T03:30:29.603Z,51.94
2022-12-23T03:31:32.970Z,52.04
2022-12-23T03:32:38.243Z,52.04
2022-12-23T03:33:42.205Z,52.00
2022-12-23T03:34:46.263Z,52.04
2022-12-23T03:37:05.299Z,52.04
2022-12-23T03:38:08.651Z,52.02
2022-12-23T03:39:13.576Z,52.03
2022-12-23T03:41:47.302Z,52.00
2022-12-23T03:44:10.368Z,51.95
2022-12-23T03:46:49.128Z,51.93
2022-12-23T03:47:56.559Z,51.93
2022-12-23T03:49:02.779Z,51.89
2022-12-23T03:50:12.711Z,51.89
2022-12-23T03:51:21.765Z,51.89
2022-12-23T03:52:33.986Z,51.89
2022-12-23T03:53:39.180Z,51.87
2022-12-23T03:54:56.173Z,51.86
2022-12-23T03:56:04.125Z,51.88
2022-12-23T03:57:06.744Z,51.88
2022-12-23T03:58:15.342Z,51.88
2022-12-23T03:59:23.178Z,51.91
2022-12-23T04:00:27.655Z,51.93
2022-12-23T04:01:33.727Z,51.92
2022-12-23T04:02:43.391Z,51.94
2022-12-23T04:04:02.501Z,51.94
2022-12-23T04:05:12.726Z,51.99
2022-12-23T04:06:15.823Z,51.94
2022-12-23T04:07:38.701Z,51.93
2022-12-23T04:08:40.847Z,51.97
2022-12-23T04:09:43.051Z,51.98
2022-12-23T04:10:45.637Z,51.98
2022-12-23T04:11:47.729Z,52.00
2022-12-23T04:12:49.905Z,52.00
2022-12-23T04:13:52.525Z,51.99
2022-12-23T04:14:55.567Z,52.02
2022-12-23T04:15:58.960Z,51.98
2022-12-23T04:17:01.406Z,51.97
2022-12-23T04:18:04.593Z,51.97
2022-12-23T04:19:07.104Z,51.96
2022-12-23T04:20:10.355Z,51.96
2022-12-23T04:21:13.435Z,51.97
2022-12-23T04:22:16.688Z,51.93
2022-12-23T04:23:20.358Z,51.93
2022-12-23T04:24:22.649Z,51.92
2022-12-23T04:25:24.854Z,51.90
2022-12-23T04:26:27.138Z,51.90
2022-12-23T04:27:29.316Z,51.90
2022-12-23T04:28:31.953Z,51.91
2022-12-23T04:29:34.505Z,51.92
2022-12-23T04:30:36.812Z,51.91
2022-12-23T04:31:39.818Z,51.90
2022-12-23T04:32:44.112Z,51.90
2022-12-23T04:33:46.334Z,51.89
2022-12-23T04:34:48.433Z,51.89
2022-12-23T04:35:51.131Z,51.89
2022-12-23T04:36:54.114Z,51.89
2022-12-23T04:37:56.364Z,51.87
2022-12-23T04:38:59.359Z,51.88
2022-12-23T04:40:01.769Z,51.84
2022-12-23T04:41:04.209Z,51.82
2022-12-23T04:42:06.413Z,51.80
2022-12-23T04:43:09.563Z,51.80
2022-12-23T04:44:11.904Z,51.76
2022-12-23T04:45:14.012Z,51.79
2022-12-23T04:46:16.682Z,51.76
2022-12-23T04:47:20.356Z,51.86
2022-12-23T04:48:23.171Z,51.79
2022-12-23T04:49:25.748Z,51.77
2022-12-23T04:50:29.012Z,51.76
2022-12-23T04:51:31.075Z,51.79
2022-12-23T04:52:33.179Z,51.76
2022-12-23T04:53:35.973Z,51.76
2022-12-23T04:54:43.879Z,51.76
2022-12-23T04:55:42.145Z,51.77
2022-12-23T04:56:44.255Z,51.77
2022-12-23T04:57:46.832Z,51.79
2022-12-23T04:58:48.886Z,51.77
2022-12-23T04:59:51.036Z,51.80
2022-12-23T05:01:07.884Z,51.79
2022-12-23T05:02:10.463Z,51.77
2022-12-23T05:03:14.758Z,51.74
2022-12-23T05:04:17.134Z,51.74
2022-12-23T05:05:19.477Z,51.75
2022-12-23T05:06:21.648Z,51.78
2022-12-23T05:07:23.764Z,51.74
2022-12-23T05:08:26.030Z,51.75
2022-12-23T05:09:29.203Z,51.79
2022-12-23T05:10:32.378Z,51.75
2022-12-23T05:11:40.154Z,51.77
2022-12-23T05:12:39.121Z,51.79
2022-12-23T05:13:41.238Z,51.78
2022-12-23T05:14:43.773Z,51.69
2022-12-23T05:15:48.220Z,51.83
2022-12-23T05:16:50.900Z,51.84
2022-12-23T05:17:54.621Z,51.91
2022-12-23T05:18:57.430Z,51.93
2022-12-23T05:19:59.675Z,51.93
2022-12-23T05:21:01.846Z,51.90
2022-12-23T05:22:04.067Z,51.90
2022-12-23T05:23:06.708Z,51.88
2022-12-23T05:24:10.764Z,51.86
2022-12-23T05:25:16.439Z,51.87
2022-12-23T05:26:20.729Z,51.85
2022-12-23T05:27:23.260Z,51.84
2022-12-23T05:28:26.417Z,51.83
2022-12-23T05:29:29.226Z,51.83
2022-12-23T05:30:31.530Z,51.81
2022-12-23T05:31:33.761Z,51.86
2022-12-23T05:32:35.880Z,51.87
2022-12-23T05:33:38.940Z,51.87
2022-12-23T05:34:41.429Z,51.89
2022-12-23T05:35:43.646Z,51.92
2022-12-23T05:36:46.841Z,51.92
2022-12-23T05:37:49.521Z,51.90
2022-12-23T05:38:52.783Z,51.92
2022-12-23T05:39:54.937Z,51.91
2022-12-23T05:40:57.205Z,51.89
2022-12-23T05:41:59.333Z,51.91
2022-12-23T05:43:01.500Z,51.93
2022-12-23T05:44:03.748Z,51.93
2022-12-23T05:45:07.751Z,51.92
2022-12-23T05:46:11.856Z,51.94
2022-12-23T05:47:14.472Z,51.60
2022-12-23T05:48:16.694Z,51.60
2022-12-23T05:49:19.145Z,52.08
2022-12-23T05:50:21.329Z,52.15
2022-12-23T05:51:25.723Z,52.21
2022-12-23T05:52:27.849Z,52.24
2022-12-23T05:53:30.814Z,52.47
2022-12-23T05:54:33.023Z,52.47
2022-12-23T05:55:35.685Z,52.31
2022-12-23T08:49:03.846Z,62.48
2022-12-23T08:50:08.165Z,62.48
2022-12-23T08:51:12.364Z,62.54
2022-12-23T08:52:14.536Z,62.47
2022-12-23T08:53:16.755Z,62.29
2022-12-23T08:54:20.013Z,62.15
2022-12-23T08:55:22.194Z,62.03
2022-12-23T08:56:27.194Z,61.84
2022-12-23T08:57:29.361Z,61.52
2022-12-23T08:58:34.848Z,61.27
2022-12-23T08:59:38.165Z,61.12
2022-12-23T09:00:40.897Z,60.72
2022-12-23T09:01:43.066Z,60.54
2022-12-23T09:02:45.437Z,60.26
2022-12-23T09:03:48.086Z,59.50
2022-12-23T09:04:50.265Z,59.50
2022-12-23T09:05:52.823Z,59.32
2022-12-23T09:06:55.158Z,59.03
2022-12-23T09:07:58.237Z,58.76
2022-12-23T09:09:00.454Z,58.53
2022-12-23T09:10:03.786Z,58.25
2022-12-23T09:11:08.860Z,57.95
2022-12-23T09:12:13.407Z,57.76
2022-12-23T09:15:20.555Z,57.15
2022-12-23T09:16:23.033Z,56.95
2022-12-23T09:17:26.226Z,56.76
2022-12-23T09:18:28.391Z,56.57
2022-12-23T09:19:30.608Z,56.39
2022-12-23T09:20:33.914Z,56.23
2022-12-23T09:23:42.056Z,55.82
2022-12-23T09:25:46.551Z,55.58
2022-12-23T09:26:48.772Z,55.36
2022-12-23T09:28:54.155Z,55.24
2022-12-23T09:31:07.036Z,54.97
2022-12-23T09:32:09.349Z,54.94
2022-12-23T09:33:11.400Z,54.83
2022-12-23T09:34:14.001Z,54.78
2022-12-23T09:36:20.285Z,54.62
2022-12-23T09:37:22.568Z,54.62
2022-12-23T09:38:24.758Z,54.52
2022-12-23T09:41:57.544Z,54.37
2022-12-23T09:43:15.705Z,54.35
2022-12-23T09:44:36.569Z,54.20
2022-12-23T09:46:05.156Z,54.15
2022-12-23T09:47:14.163Z,54.11
2022-12-23T09:48:19.166Z,54.03
2022-12-23T09:49:21.708Z,54.06
2022-12-23T09:50:28.752Z,54.09
2022-12-23T09:51:31.536Z,54.14
2022-12-23T09:52:52.590Z,54.09
2022-12-23T09:54:01.014Z,54.09
2022-12-23T09:55:04.172Z,54.06
2022-12-23T09:58:00.142Z,54.09
2022-12-23T09:59:22.903Z,53.98
2022-12-23T10:00:25.239Z,53.97
2022-12-23T10:01:32.621Z,53.97
2022-12-23T10:03:12.665Z,53.95
2022-12-23T10:04:31.111Z,53.98
2022-12-23T10:07:09.955Z,53.95
2022-12-23T10:08:36.471Z,53.90
2022-12-23T10:09:40.142Z,53.92
2022-12-23T10:10:47.268Z,53.97
2022-12-23T10:11:51.053Z,53.96
2022-12-23T10:12:54.382Z,54.00
2022-12-23T10:14:01.761Z,54.00
2022-12-23T10:15:07.984Z,54.02
2022-12-23T10:17:29.267Z,53.94
2022-12-23T10:18:53.559Z,53.90
2022-12-23T10:19:58.209Z,53.91
2022-12-23T10:22:35.729Z,53.84
2022-12-23T10:23:40.363Z,53.82
2022-12-23T10:24:43.882Z,53.85
2022-12-23T10:25:49.513Z,53.82
2022-12-23T10:28:08.674Z,53.85
2022-12-23T10:33:10.639Z,53.78
2022-12-23T10:34:25.759Z,53.71
2022-12-23T10:36:59.943Z,53.61
2022-12-23T10:38:07.965Z,53.56
2022-12-23T10:39:46.115Z,53.69
2022-12-23T10:41:24.322Z,53.68
2022-12-23T10:42:36.020Z,53.63
2022-12-23T10:45:36.824Z,53.79
2022-12-23T10:46:46.817Z,53.80
2022-12-23T10:47:56.879Z,53.81
2022-12-23T10:49:39.217Z,53.74
2022-12-23T10:50:48.134Z,53.70
2022-12-23T10:51:53.850Z,53.72
2022-12-23T10:52:56.345Z,53.72
2022-12-23T10:54:01.336Z,53.67
2022-12-23T10:55:04.394Z,53.68
2022-12-23T10:56:07.361Z,53.71
2022-12-23T10:57:09.540Z,53.69
2022-12-23T10:59:29.345Z,53.63
2022-12-23T11:00:32.202Z,53.60
2022-12-23T11:01:34.691Z,53.63
2022-12-23T11:04:08.821Z,53.61
2022-12-23T11:06:34.870Z,53.54
2022-12-23T11:07:48.614Z,53.46
2022-12-23T11:08:37.625Z,53.48
2022-12-23T11:09:55.659Z,53.47
2022-12-23T11:11:00.145Z,53.47
2022-12-23T11:12:04.833Z,53.42
2022-12-23T11:13:07.897Z,53.41
2022-12-23T11:14:17.527Z,53.35
2022-12-23T11:15:34.005Z,53.37
2022-12-23T11:16:36.246Z,53.34
2022-12-23T11:17:39.925Z,53.29
2022-12-23T11:19:03.708Z,53.29
2022-12-23T11:20:18.460Z,53.28
2022-12-23T11:21:21.058Z,53.28
2022-12-23T11:22:24.080Z,53.28
2022-12-23T11:23:28.473Z,53.26
2022-12-23T11:24:31.443Z,53.30
2022-12-23T11:25:40.183Z,53.44
2022-12-23T11:28:07.390Z,53.28
2022-12-23T11:29:11.547Z,53.24
2022-12-23T11:30:18.535Z,53.23
2022-12-23T11:31:28.544Z,53.22
2022-12-23T11:32:33.124Z,53.24
2022-12-23T11:33:48.426Z,53.19
2022-12-23T11:34:52.434Z,53.23
2022-12-23T11:37:41.859Z,53.19
2022-12-23T11:38:59.788Z,53.18
2022-12-23T11:40:06.565Z,53.14
2022-12-23T11:41:08.782Z,53.28
2022-12-23T11:42:13.988Z,53.34
2022-12-23T11:43:16.296Z,53.35
2022-12-23T11:44:42.053Z,53.33
2022-12-23T11:45:44.389Z,53.29
2022-12-23T11:46:46.861Z,53.16
2022-12-23T11:47:49.393Z,53.07
2022-12-23T11:50:37.120Z,52.98
2022-12-23T11:51:40.947Z,52.78
2022-12-23T11:52:52.157Z,52.72
2022-12-23T11:54:00.512Z,52.57
2022-12-23T11:55:05.272Z,52.47
2022-12-23T11:56:12.409Z,52.25
2022-12-23T11:57:16.080Z,52.00
2022-12-23T11:58:20.630Z,51.77
2022-12-23T11:59:32.209Z,51.39
2022-12-23T12:00:38.327Z,51.18
2022-12-23T12:01:40.520Z,51.08
2022-12-23T12:02:44.434Z,50.84
2022-12-23T12:03:49.371Z,50.63
2022-12-23T12:04:57.677Z,50.49
2022-12-23T12:06:02.103Z,50.23
2022-12-23T12:07:04.322Z,49.97
2022-12-23T12:08:12.809Z,48.15
2022-12-23T12:09:15.024Z,48.95
2022-12-23T12:10:20.255Z,48.65
2022-12-23T12:12:55.097Z,46.20
2022-12-23T12:14:03.090Z,46.88
2022-12-23T12:15:06.339Z,46.82
2022-12-23T12:16:22.209Z,46.91
2022-12-23T12:17:31.060Z,47.14
2022-12-23T12:18:33.305Z,47.28
2022-12-23T12:19:39.065Z,47.28
2022-12-23T12:20:53.416Z,47.20
2022-12-23T12:21:59.173Z,47.26
2022-12-23T12:23:42.395Z,47.10
2022-12-23T12:24:50.171Z,47.02
2022-12-23T12:26:01.342Z,46.83
2022-12-23T12:27:05.959Z,46.54
2022-12-23T12:28:14.183Z,46.42
2022-12-23T12:30:48.541Z,46.29
2022-12-23T12:31:52.884Z,46.29
2022-12-23T12:33:00.456Z,45.96
2022-12-23T12:34:21.809Z,45.99
2022-12-23T12:35:34.317Z,45.98
2022-12-23T12:37:00.441Z,45.32
2022-12-23T12:38:28.872Z,42.95
2022-12-23T12:41:16.171Z,42.07
2022-12-23T12:42:23.070Z,44.00
2022-12-23T12:43:30.549Z,43.95
2022-12-23T12:44:39.354Z,43.61
2022-12-23T12:46:02.239Z,43.68
2022-12-23T12:48:43.917Z,43.65
2022-12-23T12:49:52.657Z,41.99
2022-12-23T12:51:11.775Z,44.12
2022-12-23T12:52:17.027Z,43.08
2022-12-23T12:53:21.115Z,44.10
2022-12-23T12:54:41.181Z,45.07
2022-12-23T12:55:47.414Z,42.80
2022-12-23T12:56:52.857Z,43.53
2022-12-23T12:57:56.979Z,44.18
2022-12-23T12:59:00.208Z,42.60
2022-12-23T13:00:06.771Z,43.48
2022-12-23T13:01:33.407Z,41.06
2022-12-23T13:02:58.408Z,42.93
2022-12-23T13:06:49.972Z,43.22
2022-12-23T13:12:34.312Z,45.24
2022-12-23T13:15:27.016Z,45.93
2022-12-23T13:18:06.934Z,46.95
2022-12-23T13:19:35.072Z,47.12
2022-12-23T13:20:41.106Z,47.36
2022-12-23T13:21:54.025Z,47.43
2022-12-23T13:23:20.849Z,47.51
2022-12-23T13:24:17.191Z,47.69
2022-12-23T13:26:40.773Z,47.77
2022-12-23T13:28:09.404Z,47.81
2022-12-23T13:29:32.891Z,48.18
2022-12-23T13:32:25.677Z,48.12
2022-12-23T13:33:35.521Z,48.12
2022-12-23T13:34:53.895Z,48.18
2022-12-23T13:36:07.081Z,48.19
2022-12-23T13:37:29.338Z,48.27
2022-12-23T13:39:05.697Z,48.29
2022-12-23T13:41:35.484Z,48.41
2022-12-23T13:42:43.991Z,48.54
2022-12-23T13:43:52.761Z,48.59
2022-12-23T13:44:55.641Z,48.61
2022-12-23T13:45:58.474Z,48.56
2022-12-23T13:47:17.226Z,48.53
2022-12-23T13:48:26.942Z,48.47
2022-12-23T13:49:50.523Z,48.34
2022-12-23T13:50:56.280Z,48.22
2022-12-23T13:52:14.479Z,48.13
2022-12-23T13:53:30.011Z,48.05
2022-12-23T13:54:52.914Z,47.85
2022-12-23T13:56:02.574Z,47.79
2022-12-23T13:57:15.566Z,47.71
2022-12-23T13:58:19.552Z,47.82
2022-12-23T18:17:07.619Z,65.06
2022-12-23T18:18:15.915Z,65.10
2022-12-23T18:19:19.325Z,65.11
2022-12-23T18:20:22.443Z,65.02
2022-12-23T18:21:27.213Z,65.00
2022-12-23T18:22:29.481Z,64.87
2022-12-23T18:23:32.903Z,64.74
2022-12-23T18:24:35.123Z,64.57
2022-12-23T18:25:38.652Z,64.29
2022-12-23T18:26:42.337Z,64.02
2022-12-23T18:27:44.521Z,63.74
2022-12-23T18:28:46.849Z,62.86
2022-12-23T18:29:50.486Z,62.29
2022-12-23T18:30:54.904Z,61.88
2022-12-23T18:31:58.385Z,60.92
2022-12-23T18:33:01.386Z,59.96
2022-12-23T18:34:03.984Z,59.95
2022-12-23T18:35:31.440Z,58.98
2022-12-23T18:36:35.110Z,58.03
2022-12-23T18:37:38.621Z,58.34
2022-12-23T18:38:41.355Z,57.53
2022-12-23T18:39:43.620Z,57.78
2022-12-23T18:40:46.094Z,57.08
2022-12-23T18:41:49.234Z,56.68
2022-12-23T18:42:52.060Z,55.05
2022-12-23T18:43:54.352Z,56.69
2022-12-23T18:44:57.538Z,55.11
2022-12-23T18:45:59.685Z,54.83
2022-12-23T18:47:02.421Z,53.69
2022-12-23T18:48:06.925Z,54.81
2022-12-23T18:49:11.409Z,54.85
2022-12-23T18:50:15.294Z,52.27
2022-12-23T18:51:19.543Z,50.99
2022-12-23T18:52:22.738Z,50.32
2022-12-23T18:53:25.443Z,49.46
2022-12-23T18:54:29.016Z,51.57
2022-12-23T18:55:32.234Z,51.80
2022-12-23T18:56:34.940Z,51.00
2022-12-23T18:57:38.019Z,50.56
2022-12-23T18:58:41.108Z,49.03
2022-12-23T18:59:43.886Z,50.09
2022-12-23T19:00:46.155Z,50.15
2022-12-23T19:01:48.521Z,50.09
2022-12-23T19:02:51.490Z,49.10
2022-12-23T19:03:53.793Z,49.83
2022-12-23T19:04:56.202Z,49.34
2022-12-23T19:05:59.193Z,49.67
2022-12-23T19:07:01.572Z,49.53
2022-12-23T19:08:04.138Z,49.50
2022-12-23T19:09:07.642Z,49.45
2022-12-23T19:11:30.786Z,49.37
2022-12-23T19:12:33.703Z,49.08
2022-12-23T19:13:35.846Z,48.65
2022-12-23T19:14:40.563Z,48.19
2022-12-23T19:15:43.921Z,48.19
2022-12-23T19:16:51.624Z,48.87
2022-12-23T19:17:50.565Z,48.73
2022-12-23T19:18:53.905Z,47.72
2022-12-23T19:20:05.565Z,48.40
2022-12-23T19:21:12.074Z,48.49
2022-12-23T19:22:19.889Z,48.05
2022-12-23T19:23:30.851Z,48.06
2022-12-23T19:24:36.504Z,48.39
2022-12-23T19:25:42.209Z,47.74
2022-12-23T19:26:52.817Z,47.00
2022-12-23T19:28:00.423Z,48.16
2022-12-23T19:29:05.157Z,48.38
2022-12-23T19:30:15.872Z,47.52
2022-12-23T19:31:20.593Z,48.41
2022-12-23T19:32:23.053Z,48.09
2022-12-23T19:33:25.277Z,47.64
2022-12-23T19:34:28.289Z,48.11
2022-12-23T19:35:32.348Z,47.22
2022-12-23T19:36:35.565Z,48.32
2022-12-23T19:37:38.400Z,47.75
2022-12-23T19:38:41.620Z,48.04
2022-12-23T19:39:45.933Z,47.45
2022-12-23T19:40:56.901Z,47.98
2022-12-23T19:41:59.113Z,48.49
2022-12-23T19:43:04.076Z,48.80
2022-12-23T19:44:07.566Z,49.26
2022-12-23T19:45:11.743Z,49.15
2022-12-23T19:46:14.325Z,49.09
2022-12-23T19:47:18.179Z,49.21
2022-12-23T19:48:21.406Z,49.33
2022-12-23T19:49:24.728Z,49.45
2022-12-23T19:50:28.292Z,49.61
2022-12-23T19:51:30.432Z,49.72
2022-12-23T19:52:32.681Z,49.90
2022-12-23T19:53:34.956Z,50.12
2022-12-23T19:54:37.083Z,50.42
2022-12-23T19:55:39.261Z,50.58
2022-12-23T19:56:42.102Z,51.09
2022-12-23T19:57:44.332Z,51.36
2022-12-23T19:58:49.312Z,51.48
2022-12-23T19:59:52.072Z,51.56
2022-12-23T20:02:16.899Z,51.78
2022-12-23T20:03:19.179Z,51.96
2022-12-23T20:04:21.319Z,52.04
2022-12-23T20:05:24.638Z,52.08
2022-12-23T20:06:29.205Z,52.08
2022-12-23T20:07:31.462Z,52.14
2022-12-23T20:08:36.049Z,52.16
2022-12-23T20:09:38.322Z,52.24
2022-12-23T20:10:41.357Z,52.41
2022-12-23T20:11:45.131Z,52.44
2022-12-23T20:12:47.460Z,52.61
2022-12-23T20:13:54.656Z,52.60
2022-12-23T20:14:57.014Z,52.63
2022-12-23T20:15:59.382Z,52.65
2022-12-23T20:17:03.583Z,52.75
2022-12-23T20:18:07.128Z,52.75
2022-12-23T20:19:11.279Z,52.91
2022-12-23T20:20:14.108Z,52.97
2022-12-23T20:21:16.829Z,53.00
2022-12-23T20:22:19.039Z,53.07
2022-12-23T20:23:21.437Z,53.11
2022-12-23T20:24:24.580Z,53.32
2022-12-23T20:25:27.186Z,53.38
2022-12-23T20:26:29.729Z,53.36
2022-12-23T20:27:32.835Z,53.35
2022-12-23T20:28:35.100Z,53.39
2022-12-23T20:29:37.328Z,53.35
2022-12-23T20:30:39.610Z,53.37
2022-12-23T20:31:42.964Z,53.45
2022-12-23T20:32:45.773Z,53.47
2022-12-23T20:33:48.839Z,53.56
2022-12-23T20:34:50.985Z,53.56
2022-12-23T20:35:53.485Z,53.59
2022-12-23T20:36:56.694Z,53.60
2022-12-23T20:37:58.862Z,53.58
2022-12-23T20:39:01.668Z,53.63
2022-12-23T20:40:05.192Z,53.60
2022-12-23T20:41:09.118Z,53.63
2022-12-23T20:42:13.463Z,53.69
2022-12-23T20:43:15.733Z,53.83
2022-12-23T20:44:36.170Z,53.94
2022-12-23T20:45:23.514Z,53.92
2022-12-23T20:46:27.498Z,53.91
2022-12-23T20:47:30.830Z,53.86
2022-12-23T20:48:34.541Z,53.85
2022-12-23T20:51:11.174Z,54.00
2022-12-23T20:52:13.323Z,53.94
2022-12-23T20:53:15.521Z,53.91
2022-12-23T20:54:17.710Z,53.92
2022-12-23T20:55:19.749Z,53.94
2022-12-23T20:56:22.592Z,53.94
2022-12-23T20:57:24.937Z,53.90
2022-12-23T20:58:27.174Z,53.96
2022-12-23T20:59:30.305Z,53.93
2022-12-23T21:00:33.569Z,53.92
2022-12-23T21:01:37.323Z,53.89
2022-12-23T21:02:40.743Z,53.91
2022-12-23T21:03:43.134Z,53.92
2022-12-23T21:04:45.398Z,53.91
2022-12-23T21:05:47.521Z,53.94
2022-12-23T21:06:49.763Z,53.96
2022-12-23T21:07:52.948Z,53.94
2022-12-23T21:08:56.072Z,53.97
2022-12-23T21:09:58.186Z,54.03
2022-12-23T21:11:00.351Z,54.03
2022-12-23T21:12:02.714Z,54.02
2022-12-23T21:13:04.936Z,54.07
2022-12-23T21:14:08.430Z,54.04
2022-12-23T21:15:10.744Z,54.04
2022-12-23T21:16:13.609Z,54.02
2022-12-23T21:17:16.387Z,54.03
2022-12-23T21:18:18.629Z,54.04
2022-12-23T21:19:23.292Z,54.06
2022-12-23T21:20:25.690Z,54.03
2022-12-23T21:21:28.106Z,54.04
2022-12-23T21:22:31.174Z,54.00
2022-12-23T21:23:36.841Z,54.05
2022-12-23T21:24:40.987Z,54.03
2022-12-23T21:25:43.197Z,54.13
2022-12-23T21:26:51.865Z,54.14
2022-12-23T21:27:51.211Z,54.13
2022-12-23T21:28:56.179Z,54.17
2022-12-23T21:30:00.191Z,54.17
2022-12-23T21:31:03.745Z,54.13
2022-12-23T21:32:06.192Z,54.14
2022-12-23T21:33:08.364Z,54.16
2022-12-23T21:34:12.707Z,54.14
2022-12-23T21:35:15.427Z,54.14
2022-12-23T21:36:20.734Z,54.13
2022-12-23T21:37:23.141Z,54.17
2022-12-23T21:38:25.260Z,54.17
2022-12-23T21:39:27.692Z,54.11
2022-12-23T21:40:30.112Z,54.11
2022-12-23T21:41:36.626Z,54.08
2022-12-23T21:42:38.796Z,54.06
2022-12-23T21:43:41.951Z,54.04
2022-12-23T21:44:45.346Z,54.03
2022-12-23T21:45:52.665Z,54.30
2022-12-23T21:46:55.095Z,54.30
2022-12-23T21:47:58.254Z,54.18
2022-12-23T21:49:01.366Z,54.17
2022-12-23T21:50:04.538Z,54.25
2022-12-23T21:51:10.111Z,54.23
2022-12-23T21:52:12.973Z,54.25
2022-12-23T21:53:16.095Z,54.24
2022-12-23T21:54:18.387Z,54.22
2022-12-23T21:55:20.451Z,54.21
2022-12-23T21:56:24.679Z,54.28
2022-12-23T21:57:26.903Z,54.33
2022-12-23T21:58:29.350Z,54.32
2022-12-23T21:59:35.209Z,54.24
2022-12-23T22:00:37.292Z,54.26
2022-12-23T22:01:40.516Z,54.26
2022-12-23T22:02:42.939Z,54.27
2022-12-23T22:03:46.146Z,54.30
2022-12-23T22:04:48.439Z,54.33
2022-12-23T22:05:51.411Z,54.30
2022-12-23T22:06:54.381Z,54.35
2022-12-23T22:07:56.912Z,54.32
2022-12-23T22:08:59.308Z,54.30
2022-12-23T22:10:01.450Z,54.22
2022-12-23T22:11:08.754Z,54.13
2022-12-23T22:12:10.892Z,54.10
2022-12-23T22:13:13.089Z,54.08
2022-12-23T22:14:16.772Z,54.04
2022-12-23T22:15:19.020Z,54.03
2022-12-23T22:16:23.605Z,54.05
2022-12-23T22:17:26.923Z,54.05
2022-12-23T22:18:30.120Z,54.05
2022-12-23T22:19:32.386Z,54.01
2022-12-23T22:20:45.836Z,53.98
2022-12-23T22:21:44.153Z,54.04
2022-12-23T22:22:47.304Z,53.88
2022-12-23T22:23:51.240Z,53.98
2022-12-23T22:24:53.467Z,53.99
2022-12-23T22:25:55.580Z,53.94
2022-12-23T22:26:57.941Z,53.92
2022-12-23T22:28:00.998Z,53.93
2022-12-23T22:29:04.251Z,53.94
2022-12-23T22:30:08.411Z,53.91
2022-12-23T22:31:16.352Z,53.86
2022-12-23T22:32:18.579Z,53.80
2022-12-23T22:33:20.671Z,53.74
2022-12-23T22:34:24.961Z,53.68
2022-12-23T22:35:27.812Z,53.66